createdAt,value
2019-01-04T00:01:34.613Z,3.50
2019-01-04T00:06:39.864Z,3.43
2019-01-04T00:11:45.118Z,2.93
2019-01-04T00:16:50.386Z,2.70
2019-01-04T00:21:55.726Z,3.03
2019-01-04T00:27:01.134Z,2.30
2019-01-04T00:32:06.454Z,2.40
2019-01-04T00:37:11.766Z,2.63
2019-01-04T00:42:17.013Z,3.50
2019-01-04T00:47:22.297Z,3.53
2019-01-04T00:52:27.577Z,3.27
2019-01-04T00:58:08.072Z,2.80
2019-01-04T01:04:31.330Z,2.63
2019-01-04T01:10:11.334Z,2.10
2019-01-04T01:16:36.850Z,2.50
2019-01-04T01:22:03.118Z,2.40
2019-01-04T01:28:15.920Z,2.13
2019-01-04T01:34:42.481Z,2.53
2019-01-04T01:41:09.313Z,2.70
2019-01-04T01:46:41.438Z,2.10
2019-01-04T01:52:02.702Z,2.40
2019-01-04T01:57:08.001Z,2.10
2019-01-04T02:02:13.251Z,2.30
2019-01-04T02:07:18.493Z,2.23
2019-01-04T02:12:23.719Z,1.93
2019-01-04T02:17:29.064Z,2.23
2019-01-04T02:22:34.290Z,2.20
2019-01-04T02:27:39.566Z,2.70
2019-01-04T02:32:44.791Z,2.03
2019-01-04T02:37:50.017Z,2.23
2019-01-04T02:42:55.300Z,2.20
2019-01-04T02:48:00.541Z,2.43
2019-01-04T02:53:05.769Z,3.13
2019-01-04T02:58:11.062Z,2.80
2019-01-04T03:03:16.326Z,2.23
2019-01-04T03:08:21.558Z,2.60
2019-01-04T03:13:26.818Z,2.73
2019-01-04T03:18:32.051Z,3.40
2019-01-04T03:23:37.323Z,2.57
2019-01-04T03:28:42.612Z,2.93
2019-01-04T03:33:47.879Z,3.53
2019-01-04T03:38:53.118Z,2.97
2019-01-04T03:43:58.367Z,2.80
2019-01-04T03:49:03.625Z,2.40
2019-01-04T03:54:08.878Z,3.00
2019-01-04T03:59:14.123Z,3.30
2019-01-04T04:04:19.349Z,4.03
2019-01-04T04:09:24.582Z,4.33
2019-01-04T04:14:29.834Z,4.90
2019-01-04T04:19:35.077Z,5.17
2019-01-04T04:24:40.317Z,5.00
2019-01-04T04:29:45.637Z,4.77
2019-01-04T04:34:50.875Z,4.93
2019-01-04T04:39:56.188Z,5.63
2019-01-04T04:45:01.446Z,6.23
2019-01-04T04:50:06.827Z,7.80
2019-01-04T04:55:12.066Z,8.10
2019-01-04T05:00:17.308Z,8.87
2019-01-04T05:05:22.546Z,8.23
2019-01-04T05:10:27.795Z,7.53
2019-01-04T05:15:33.026Z,8.40
2019-01-04T05:20:38.251Z,6.47
2019-01-04T05:25:43.490Z,8.17
2019-01-04T05:30:48.865Z,8.17
2019-01-04T05:35:54.123Z,8.83
2019-01-04T05:40:59.392Z,9.70
2019-01-04T05:46:04.661Z,9.90
2019-01-04T05:51:09.911Z,9.23
2019-01-04T05:56:15.152Z,10.27
2019-01-04T06:01:20.405Z,11.70
2019-01-04T06:06:25.706Z,12.13
2019-01-04T06:11:30.969Z,13.13
2019-01-04T06:16:36.257Z,12.57
2019-01-04T06:21:41.582Z,14.67
2019-01-04T06:26:46.829Z,13.73
2019-01-04T06:31:52.157Z,13.47
2019-01-04T06:36:57.642Z,14.60
2019-01-04T06:42:02.910Z,14.50
2019-01-04T06:47:15.314Z,15.33
2019-01-04T06:52:22.773Z,13.80
2019-01-04T06:57:28.023Z,13.60
2019-01-04T07:02:33.281Z,12.50
2019-01-04T07:07:38.594Z,13.13
2019-01-04T07:12:43.857Z,14.13
2019-01-04T07:17:49.113Z,13.77
2019-01-04T07:22:54.422Z,13.80
2019-01-04T07:27:59.693Z,17.77
2019-01-04T07:33:04.993Z,18.07
2019-01-04T07:38:10.261Z,18.27
2019-01-04T07:43:16.578Z,15.10
2019-01-04T07:48:20.829Z,15.50
2019-01-04T07:53:26.093Z,16.10
2019-01-04T07:58:31.353Z,16.40
2019-01-04T08:03:36.593Z,14.83
2019-01-04T08:08:41.857Z,17.07
2019-01-04T08:13:47.243Z,16.70
2019-01-04T08:18:52.722Z,16.43
2019-01-04T08:23:58.003Z,16.97
2019-01-04T08:29:03.243Z,15.70
2019-01-04T08:34:08.616Z,17.23
2019-01-04T08:39:13.854Z,16.77
2019-01-04T08:44:19.109Z,16.37
2019-01-04T08:49:24.346Z,15.37
2019-01-04T08:54:29.579Z,16.37
2019-01-04T08:59:34.831Z,14.80
2019-01-04T09:04:40.091Z,14.27
2019-01-04T09:09:45.445Z,15.03
2019-01-04T09:14:50.721Z,14.80
2019-01-04T09:19:56.053Z,14.27
2019-01-04T09:25:01.413Z,15.67
2019-01-04T09:30:08.762Z,16.80
2019-01-04T09:35:14.076Z,16.20
2019-01-04T09:40:19.347Z,15.30
2019-01-04T09:45:24.588Z,14.43
2019-01-04T09:50:29.849Z,12.03
2019-01-04T09:55:35.173Z,12.93
2019-01-04T10:00:40.449Z,12.43
2019-01-04T10:05:45.673Z,10.87
2019-01-04T10:10:50.910Z,11.40
2019-01-04T10:15:56.177Z,11.10
2019-01-04T10:21:01.398Z,10.43
2019-01-04T10:26:06.741Z,10.50
2019-01-04T10:31:11.985Z,9.47
2019-01-04T10:36:17.217Z,10.73
2019-01-04T10:41:22.465Z,12.17
2019-01-04T10:46:27.752Z,10.47
2019-01-04T10:51:33.036Z,11.07
2019-01-04T10:56:38.305Z,9.80
2019-01-04T11:01:43.577Z,10.43
2019-01-04T11:06:48.838Z,10.30
2019-01-04T11:11:54.116Z,9.00
2019-01-04T11:16:59.354Z,9.97
2019-01-04T11:22:21.534Z,10.27
2019-01-04T11:27:38.928Z,9.17
2019-01-04T11:33:12.400Z,9.67
2019-01-04T11:38:33.890Z,8.57
2019-01-04T11:44:04.268Z,10.77
2019-01-04T11:49:38.823Z,8.87
2019-01-04T11:54:44.046Z,9.23
2019-01-04T11:59:49.290Z,7.33
2019-01-04T12:04:54.590Z,6.60
2019-01-04T12:09:59.829Z,7.80
2019-01-04T12:15:05.234Z,7.50
2019-01-04T12:20:10.552Z,7.13
2019-01-04T12:25:15.780Z,5.77
2019-01-04T12:30:21.049Z,6.07
2019-01-04T12:35:26.278Z,5.47
2019-01-04T12:40:31.525Z,6.40
2019-01-04T12:45:36.754Z,6.17
2019-01-04T12:50:41.993Z,5.73
2019-01-04T12:55:47.290Z,5.53
2019-01-04T13:00:52.530Z,6.47
2019-01-04T13:05:57.798Z,6.00
2019-01-04T13:11:03.109Z,6.53
2019-01-04T13:16:08.344Z,6.13
2019-01-04T13:21:13.578Z,5.43
2019-01-04T13:26:18.829Z,4.90
2019-01-04T13:31:24.077Z,5.50
2019-01-04T13:36:29.297Z,5.27
2019-01-04T13:41:34.518Z,5.13
2019-01-04T13:46:39.793Z,4.43
2019-01-04T13:51:45.010Z,5.13
2019-01-04T13:56:50.230Z,4.17
2019-01-04T14:01:55.525Z,5.27
2019-01-04T14:07:00.764Z,4.80
2019-01-04T14:12:06.041Z,4.60
2019-01-04T14:17:11.263Z,4.80
2019-01-04T14:22:16.506Z,4.53
2019-01-04T14:27:21.796Z,4.30
2019-01-04T14:32:27.013Z,3.83
2019-01-04T14:37:32.229Z,5.10
2019-01-04T14:42:37.481Z,3.87
2019-01-04T14:47:42.713Z,3.97
2019-01-04T14:52:47.937Z,3.97
2019-01-04T14:57:53.176Z,4.07
2019-01-04T15:02:58.438Z,4.03
2019-01-04T15:08:03.663Z,4.37
2019-01-04T15:13:08.890Z,4.77
2019-01-04T15:18:14.093Z,3.27
2019-01-04T15:23:19.309Z,4.13
2019-01-04T15:28:24.533Z,4.90
2019-01-04T15:33:29.737Z,4.47
2019-01-04T15:38:36.377Z,4.37
2019-01-04T15:43:40.230Z,4.87
2019-01-04T15:48:45.473Z,4.23
2019-01-04T15:53:50.738Z,3.83
2019-01-04T15:58:56.058Z,5.30
2019-01-04T16:04:01.295Z,4.87
2019-01-04T16:09:08.353Z,5.20
2019-01-04T16:14:13.596Z,4.77
2019-01-04T16:19:18.829Z,5.77
2019-01-04T16:24:24.049Z,4.87
2019-01-04T16:29:29.260Z,5.37
2019-01-04T16:34:34.488Z,5.97
2019-01-04T16:39:39.701Z,5.53
2019-01-04T16:44:44.923Z,6.70
2019-01-04T16:49:50.199Z,6.37
2019-01-04T16:54:55.453Z,5.67
2019-01-04T17:00:00.676Z,6.80
2019-01-04T17:05:06.044Z,8.77
2019-01-04T17:10:11.382Z,7.17
2019-01-04T17:15:16.658Z,7.23
2019-01-04T17:20:21.903Z,6.90
2019-01-04T17:25:27.178Z,6.47
2019-01-04T17:30:32.455Z,6.23
2019-01-04T17:35:37.744Z,6.50
2019-01-04T17:40:42.991Z,6.73
2019-01-04T17:45:48.257Z,6.40
2019-01-04T17:50:53.518Z,6.80
2019-01-04T17:55:58.749Z,6.53
2019-01-04T18:01:04.069Z,6.43
2019-01-04T18:06:09.398Z,5.77
2019-01-04T18:11:15.131Z,6.20
2019-01-04T18:16:19.900Z,5.93
2019-01-04T18:21:25.117Z,5.30
2019-01-04T18:26:30.494Z,5.40
2019-01-04T18:31:35.713Z,5.40
2019-01-04T18:36:41.026Z,5.57
2019-01-04T18:41:46.299Z,5.60
2019-01-04T18:46:51.694Z,5.30
2019-01-04T18:51:56.981Z,4.90
2019-01-04T18:57:02.402Z,4.27
2019-01-04T19:02:07.660Z,5.33
2019-01-04T19:07:13.045Z,5.40
2019-01-04T19:12:18.414Z,5.53
2019-01-04T19:17:23.696Z,5.40
2019-01-04T19:22:28.962Z,5.10
2019-01-04T19:27:34.402Z,5.10
2019-01-04T19:32:39.745Z,4.77
2019-01-04T19:37:45.035Z,4.57
2019-01-04T19:42:50.358Z,4.47
2019-01-04T19:47:55.581Z,5.10
2019-01-04T19:53:00.825Z,4.20
2019-01-04T19:58:06.090Z,4.87
2019-01-04T20:03:11.331Z,5.50
2019-01-04T20:08:48.442Z,4.80
2019-01-04T20:17:16.909Z,5.07
2019-01-04T20:22:27.538Z,4.77
2019-01-04T20:27:41.718Z,4.90
2019-01-04T20:32:51.962Z,5.30
2019-01-04T20:38:02.521Z,6.77
2019-01-04T20:43:13.025Z,5.93
2019-01-04T20:48:23.339Z,5.70
2019-01-04T20:53:33.394Z,6.13
2019-01-04T20:58:43.702Z,5.40
2019-01-04T21:03:54.186Z,5.43
2019-01-04T21:09:03.531Z,5.50
2019-01-04T21:15:18.574Z,4.93
2019-01-04T21:21:28.639Z,5.43
2019-01-04T21:26:39.096Z,6.00
2019-01-04T21:32:23.895Z,5.37
2019-01-04T21:37:38.214Z,4.30
2019-01-04T21:42:48.773Z,4.67
2019-01-04T21:48:02.085Z,4.93
2019-01-04T21:53:12.510Z,5.37
2019-01-04T21:58:22.960Z,6.27
2019-01-04T22:03:40.348Z,5.80
2019-01-04T22:08:58.765Z,5.57
2019-01-04T22:14:09.400Z,6.23
2019-01-04T22:19:31.895Z,5.90
2019-01-04T22:24:45.102Z,6.60
2019-01-04T22:29:58.494Z,6.30
2019-01-04T22:35:09.121Z,5.57
2019-01-04T22:41:20.540Z,7.07
2019-01-04T22:46:34.793Z,7.37
2019-01-04T22:52:44.969Z,6.60
2019-01-04T23:00:04.217Z,6.90
2019-01-04T23:05:14.653Z,7.43
2019-01-04T23:11:01.491Z,6.57
2019-01-04T23:16:13.842Z,6.70
2019-01-04T23:21:41.605Z,7.13
2019-01-04T23:26:50.984Z,6.60
2019-01-04T23:32:08.182Z,6.83
2019-01-04T23:37:27.557Z,5.47
2019-01-04T23:42:39.713Z,6.33
2019-01-04T23:47:49.094Z,5.67
2019-01-04T23:53:02.577Z,5.63
2019-01-04T23:58:14.841Z,4.83
